Time;durP1;ratioP1;P1;durP2;ratioP2;P2;SDS_P1;SDS_P2;PMS_P1;PMS_P2;Temp;Humidity;BMP_temperature;BMP_pressure;BME280_temperature;BME280_humidity;BME280_pressure;Samples;Min_cycle;Max_cycle;Signal;HPM_P1;HPM_P2
2021/12/12 00:01:25;;;;;;;18.55;6.05;;;;;;;1.54;100.00;101890.75;6199913;28;20053;-76
2021/12/12 00:04:33;;;;;;;16.63;5.72;;;;;;;1.55;100.00;101884.72;6199880;28;20050;-76
2021/12/12 00:07:35;;;;;;;15.45;6.80;;;;;;;1.54;100.00;101885.56;6200034;28;20395;-76
2021/12/12 00:10:40;;;;;;;17.20;6.35;;;;;;;1.56;100.00;101886.44;6199996;28;20054;-76
2021/12/12 00:13:46;;;;;;;14.63;5.82;;;;;;;1.64;100.00;101886.47;6199972;28;20046;-76
2021/12/12 00:16:47;;;;;;;21.17;6.20;;;;;;;1.64;100.00;101884.75;6200281;28;20051;-76
2021/12/12 00:19:51;;;;;;;14.43;4.97;;;;;;;1.65;100.00;101885.59;6199623;28;20482;-76
2021/12/12 00:22:58;;;;;;;13.95;6.15;;;;;;;1.71;100.00;101877.84;6199380;28;20434;-75
2021/12/12 00:26:03;;;;;;;14.27;4.93;;;;;;;1.74;100.00;101875.25;6199438;28;20058;-76
2021/12/12 00:29:05;;;;;;;21.15;7.65;;;;;;;1.76;100.00;101883.88;6223898;28;20054;-76
2021/12/12 00:32:10;;;;;;;17.60;5.88;;;;;;;1.75;100.00;101870.06;6221954;28;20049;-76
2021/12/12 00:35:16;;;;;;;17.95;6.70;;;;;;;1.79;100.00;101855.38;6223709;28;20049;-76
2021/12/12 00:38:22;;;;;;;21.55;6.90;;;;;;;1.83;100.00;101858.84;6223772;28;20417;-76
2021/12/12 00:41:28;;;;;;;11.30;4.93;;;;;;;1.86;100.00;101861.44;6223729;28;20050;-76
2021/12/12 00:44:31;;;;;;;21.38;7.03;;;;;;;1.91;100.00;101854.53;6223574;28;20077;-76
2021/12/12 00:47:33;;;;;;;24.25;6.47;;;;;;;1.93;100.00;101850.22;6223323;28;20054;-76
2021/12/12 00:50:40;;;;;;;19.25;7.15;;;;;;;1.95;100.00;101849.34;6223210;28;20060;-76
2021/12/12 00:53:44;;;;;;;16.05;6.20;;;;;;;1.99;100.00;101860.56;6223496;28;20386;-76
2021/12/12 00:56:46;;;;;;;14.38;6.28;;;;;;;2.04;100.00;101853.66;6221678;28;20484;-76
2021/12/12 00:59:48;;;;;;;20.17;8.07;;;;;;;2.02;100.00;101845.88;6223210;28;20053;-76
2021/12/12 01:02:50;;;;;;;21.83;7.97;;;;;;;2.07;100.00;101840.69;6223187;28;20045;-76
2021/12/12 01:05:55;;;;;;;17.60;5.43;;;;;;;2.08;100.00;101832.03;6223203;28;20417;-77
2021/12/12 01:08:59;;;;;;;18.73;7.65;;;;;;;2.11;100.00;101833.78;6223410;28;20050;-77
2021/12/12 01:12:05;;;;;;;20.00;6.43;;;;;;;2.12;100.00;101830.31;6222799;28;20046;-76
2021/12/12 01:15:12;;;;;;;17.23;8.07;;;;;;;2.18;100.00;101832.91;6222974;28;20046;-77
2021/12/12 01:18:17;;;;;;;15.63;7.43;;;;;;;2.17;100.00;101823.41;6222819;28;20054;-76
2021/12/12 01:21:24;;;;;;;35.25;8.95;;;;;;;2.24;100.00;101823.41;6222644;28;20515;-77
2021/12/12 01:24:28;;;;;;;27.15;9.20;;;;;;;2.23;100.00;101826.00;6222000;28;20061;-76
2021/12/12 01:27:30;;;;;;;25.90;6.68;;;;;;;2.23;100.00;101828.59;6213296;28;20494;-76
2021/12/12 01:30:32;;;;;;;27.13;9.40;;;;;;;2.24;100.00;101831.19;6214174;28;20045;-77
2021/12/12 01:33:35;;;;;;;20.40;6.97;;;;;;;2.22;100.00;101837.22;6222735;28;20046;-76
2021/12/12 01:36:48;;;;;;;26.23;7.93;;;;;;;2.23;100.00;101833.78;6214263;28;20050;-77
2021/12/12 01:39:52;;;;;;;23.75;9.25;;;;;;;2.29;100.00;101832.03;6222558;28;20061;-76
2021/12/12 01:42:57;;;;;;;22.35;9.70;;;;;;;2.34;100.00;101833.75;6214297;28;20038;-76
2021/12/12 01:46:02;;;;;;;24.95;8.55;;;;;;;2.40;100.00;101836.31;6222621;28;20061;-76
2021/12/12 01:49:09;;;;;;;18.13;7.38;;;;;;;2.35;100.00;101838.06;6227590;28;20065;-76
2021/12/12 01:52:15;;;;;;;22.20;8.48;;;;;;;2.37;100.00;101832.03;6227496;28;20046;-76
2021/12/12 01:55:24;;;;;;;29.38;9.05;;;;;;;2.41;100.00;101831.16;6227429;28;20049;-76
2021/12/12 01:58:29;;;;;;;22.40;9.68;;;;;;;2.39;100.00;101824.22;6209510;28;20533;-76
2021/12/12 02:01:35;;;;;;;23.50;8.93;;;;;;;2.44;100.00;101818.16;6212014;28;20058;-76
2021/12/12 02:04:43;;;;;;;18.35;8.15;;;;;;;2.47;100.00;101819.88;6227101;28;20061;-76
2021/12/12 02:07:53;;;;;;;29.50;8.73;;;;;;;2.46;100.00;101832.00;6227272;28;20493;-77
2021/12/12 02:10:58;;;;;;;13.98;7.55;;;;;;;2.43;100.00;101834.59;6226861;28;20056;-76
2021/12/12 02:14:08;;;;;;;25.20;8.23;;;;;;;2.48;100.00;101825.06;6227028;28;20148;-76
2021/12/12 02:17:20;;;;;;;25.88;8.85;;;;;;;2.43;100.00;101816.44;6227073;28;20057;-76
2021/12/12 02:20:33;;;;;;;23.27;8.00;;;;;;;2.48;100.00;101824.19;6226663;28;20517;-76
2021/12/12 02:23:56;;;;;;;17.02;6.15;;;;;;;2.48;100.00;101826.81;6226816;28;20053;-76
2021/12/12 02:37:01;;;;;;;20.45;9.15;;;;;;;2.51;100.00;101816.41;6225880;28;20054;-77
2021/12/12 02:40:05;;;;;;;17.85;6.75;;;;;;;2.53;100.00;101819.88;6226457;28;20058;-77
2021/12/12 02:43:08;;;;;;;14.95;7.47;;;;;;;2.61;100.00;101827.63;6226501;28;20053;-76
2021/12/12 02:46:11;;;;;;;17.35;6.88;;;;;;;2.60;100.00;101831.97;6226083;28;20055;-76
2021/12/12 02:49:25;;;;;;;23.45;7.97;;;;;;;2.59;100.00;101826.75;6226326;28;20061;-76
2021/12/12 02:52:30;;;;;;;13.23;5.07;;;;;;;2.59;100.00;101821.56;6226110;28;20046;-76
2021/12/12 02:55:37;;;;;;;17.77;6.72;;;;;;;2.60;100.00;101824.19;6225933;28;20417;-76
2021/12/12 02:58:39;;;;;;;14.63;6.03;;;;;;;2.65;100.00;101824.16;6212660;28;20050;-77
2021/12/12 03:01:46;;;;;;;14.00;5.80;;;;;;;2.64;100.00;101825.91;6201616;28;20050;-76
2021/12/12 03:04:48;;;;;;;14.65;6.20;;;;;;;2.64;100.00;101828.50;6201372;28;20482;-76
2021/12/12 03:07:49;;;;;;;20.23;6.30;;;;;;;2.66;100.00;101828.47;6221109;28;20046;-76
2021/12/12 03:10:55;;;;;;;11.63;5.97;;;;;;;2.68;100.00;101829.31;6224499;28;20417;-76
2021/12/12 03:13:56;;;;;;;17.55;5.90;;;;;;;2.77;100.00;101819.78;6217910;28;20046;-76
2021/12/12 03:16:58;;;;;;;10.05;4.68;;;;;;;2.76;100.00;101819.78;6217144;28;20045;-76
2021/12/12 03:20:06;;;;;;;15.73;5.10;;;;;;;2.78;100.00;101823.25;6217907;28;20053;-76
2021/12/12 03:23:10;;;;;;;14.45;5.38;;;;;;;2.78;100.00;101826.72;6223687;28;20050;-76
2021/12/12 03:26:13;;;;;;;20.73;5.43;;;;;;;2.82;100.00;101818.88;6224623;28;20042;-76
2021/12/12 03:29:15;;;;;;;7.38;3.80;;;;;;;2.78;100.00;101821.53;6220937;28;20057;-75
2021/12/12 03:32:20;;;;;;;16.80;5.75;;;;;;;2.79;100.00;101823.22;6216522;28;20058;-76
2021/12/12 03:35:22;;;;;;;10.43;5.28;;;;;;;2.89;100.00;101813.66;6225048;28;20049;-76
2021/12/12 03:38:27;;;;;;;9.85;4.75;;;;;;;2.91;100.00;101814.53;6200760;28;20050;-76
2021/12/12 03:41:33;;;;;;;11.57;5.38;;;;;;;2.95;100.00;101811.06;6200515;28;20054;-76
2021/12/12 03:44:38;;;;;;;9.48;4.20;;;;;;;2.94;100.00;101809.31;6200533;28;20424;-76
2021/12/12 03:47:43;;;;;;;12.00;5.55;;;;;;;2.91;100.00;101803.31;6213422;28;20057;-77
2021/12/12 03:50:47;;;;;;;9.85;3.67;;;;;;;2.92;100.00;101802.44;6219046;28;20053;-76
2021/12/12 03:53:49;;;;;;;10.68;4.05;;;;;;;3.02;100.00;101794.56;6224762;28;20056;-76
2021/12/12 03:56:52;;;;;;;11.60;4.78;;;;;;;2.99;100.00;101797.16;6224373;28;20417;-76
2021/12/12 03:59:54;;;;;;;8.63;4.93;;;;;;;2.96;100.00;101794.63;6223442;28;20053;-76
2021/12/12 04:02:57;;;;;;;11.25;4.97;;;;;;;3.05;100.00;101796.31;6224084;28;20050;-76
2021/12/12 04:06:01;;;;;;;13.80;4.03;;;;;;;3.02;100.00;101807.56;6224520;28;20046;-76
2021/12/12 04:09:04;;;;;;;11.75;4.72;;;;;;;3.02;100.00;101804.97;6213525;28;20054;-76
2021/12/12 04:12:11;;;;;;;14.15;4.43;;;;;;;3.03;100.00;101813.59;6208978;28;20045;-76
2021/12/12 04:15:13;;;;;;;9.20;4.10;;;;;;;3.09;100.00;101800.59;6210559;28;20057;-76
2021/12/12 04:18:14;;;;;;;9.75;4.43;;;;;;;3.10;100.00;101804.94;6200753;28;20080;-76
2021/12/12 04:21:20;;;;;;;9.32;4.45;;;;;;;3.11;100.00;101810.97;6210692;28;20421;-76
2021/12/12 04:24:24;;;;;;;11.38;4.32;;;;;;;3.13;100.00;101804.03;6221447;28;20056;-76
2021/12/12 04:27:27;;;;;;;12.55;3.97;;;;;;;3.18;100.00;101812.66;6213419;28;20049;-76
2021/12/12 04:30:28;;;;;;;8.02;3.95;;;;;;;3.16;100.00;101802.28;6201781;28;20066;-76
2021/12/12 04:33:30;;;;;;;10.27;3.67;;;;;;;3.11;100.00;101806.66;6199446;28;20047;-76
2021/12/12 04:36:34;;;;;;;9.63;3.78;;;;;;;3.11;100.00;101809.25;6199374;28;20046;-76
2021/12/12 04:39:38;;;;;;;7.10;3.00;;;;;;;3.15;100.00;101804.91;6199294;28;20083;-76
2021/12/12 04:42:42;;;;;;;10.38;3.28;;;;;;;3.25;100.00;101799.63;6198818;28;20501;-76
2021/12/12 04:46:03;;;;;;;13.90;3.88;;;;;;;3.34;100.00;101796.13;6199247;28;20061;-76
2021/12/12 04:52:38;;;;;;;6.95;3.55;;;;;;;3.35;100.00;101784.84;6223314;28;20409;-76
2021/12/12 04:55:48;;;;;;;5.65;3.03;;;;;;;3.31;100.00;101785.72;6223364;28;20045;-76
2021/12/12 04:59:00;;;;;;;10.43;3.17;;;;;;;3.34;100.00;101793.50;6210665;28;20046;-76
2021/12/12 05:02:08;;;;;;;6.97;3.03;;;;;;;3.29;100.00;101800.47;6210630;28;20046;-76
2021/12/12 05:05:16;;;;;;;9.57;3.30;;;;;;;3.28;100.00;101793.56;6209946;28;20045;-76
2021/12/12 05:08:26;;;;;;;9.80;3.05;;;;;;;3.35;100.00;101794.38;6210885;28;20050;-76
2021/12/12 05:11:32;;;;;;;5.78;2.85;;;;;;;3.33;100.00;101803.94;6209392;28;20157;-76
2021/12/12 05:14:38;;;;;;;5.68;2.45;;;;;;;3.35;100.00;101803.03;6207864;28;20048;-76
2021/12/12 05:17:41;;;;;;;8.00;3.08;;;;;;;3.34;100.00;101793.50;6210318;28;20049;-76
2021/12/12 05:20:47;;;;;;;7.97;3.05;;;;;;;3.39;100.00;101793.50;6220503;28;20050;-76
2021/12/12 05:23:52;;;;;;;4.45;2.35;;;;;;;3.33;100.00;101786.59;6222117;28;20042;-76
2021/12/12 05:26:56;;;;;;;6.50;3.00;;;;;;;3.30;100.00;101795.25;6218990;28;20046;-76
2021/12/12 05:30:02;;;;;;;4.05;2.53;;;;;;;3.28;100.00;101788.38;6217035;28;20505;-76
2021/12/12 05:33:04;;;;;;;5.10;2.40;;;;;;;3.24;100.00;101791.84;6220449;28;20061;-76
2021/12/12 05:36:07;;;;;;;7.35;1.98;;;;;;;3.18;100.00;101795.38;6216006;28;20493;-76
2021/12/12 05:39:10;;;;;;;7.75;2.35;;;;;;;3.13;100.00;101794.50;6220958;28;20049;-76
2021/12/12 05:42:12;;;;;;;9.25;2.75;;;;;;;3.11;100.00;101795.41;6222336;28;20141;-75
2021/12/12 05:45:15;;;;;;;2.88;1.63;;;;;;;3.09;100.00;101797.13;6222218;28;20042;-76
2021/12/12 05:48:17;;;;;;;4.47;1.92;;;;;;;3.02;100.00;101793.72;6222496;28;20046;-76
2021/12/12 05:51:19;;;;;;;3.78;2.03;;;;;;;3.05;100.00;101796.31;6220136;28;20045;-76
2021/12/12 05:54:23;;;;;;;2.88;1.85;;;;;;;3.13;100.00;101801.44;6222351;28;20072;-76
2021/12/12 05:57:27;;;;;;;7.10;2.40;;;;;;;3.10;100.00;101799.72;6221413;28;20049;-76
2021/12/12 06:00:34;;;;;;;3.85;2.25;;;;;;;3.00;100.00;101798.94;6214998;28;20046;-76
2021/12/12 06:03:37;;;;;;;5.82;1.98;;;;;;;2.95;100.00;101805.88;6222146;28;20054;-76
2021/12/12 06:06:42;;;;;;;2.28;1.60;;;;;;;2.97;100.00;101798.06;6222104;28;20556;-75
2021/12/12 06:09:46;;;;;;;5.10;2.28;;;;;;;2.96;100.00;101797.22;6221825;28;20057;-76
2021/12/12 06:12:48;;;;;;;2.63;1.70;;;;;;;2.92;100.00;101800.69;6221874;28;20050;-76
2021/12/12 06:15:54;;;;;;;6.43;1.77;;;;;;;2.90;100.00;101801.56;6221765;28;20433;-76
2021/12/12 06:19:01;;;;;;;3.53;1.58;;;;;;;2.91;100.00;101796.38;6220199;28;20053;-75
2021/12/12 06:22:03;;;;;;;3.08;1.58;;;;;;;2.92;100.00;101785.13;6207137;28;20046;-76
2021/12/12 06:25:06;;;;;;;5.57;1.75;;;;;;;2.89;100.00;101779.06;6197658;28;20042;-76
2021/12/12 06:28:09;;;;;;;4.18;1.38;;;;;;;2.88;100.00;101791.19;6197468;28;20065;-76
2021/12/12 06:31:12;;;;;;;3.67;1.65;;;;;;;2.93;100.00;101794.63;6197536;28;20054;-76
2021/12/12 06:34:15;;;;;;;2.17;1.00;;;;;;;2.90;100.00;101784.25;6201133;28;20051;-76
2021/12/12 06:37:16;;;;;;;1.75;1.35;;;;;;;2.93;100.00;101794.63;6201970;28;20050;-75
2021/12/12 06:40:21;;;;;;;2.33;1.15;;;;;;;2.93;100.00;101784.22;6201676;28;20058;-75
2021/12/12 06:43:23;;;;;;;1.80;1.30;;;;;;;2.94;100.00;101785.94;6201541;28;20046;-75
2021/12/12 06:46:26;;;;;;;2.25;1.23;;;;;;;2.94;100.00;101775.56;6201961;28;20051;-75
2021/12/12 06:49:28;;;;;;;1.65;1.20;;;;;;;2.93;100.00;101773.84;6211460;28;20049;-75
2021/12/12 06:52:32;;;;;;;4.20;1.83;;;;;;;2.93;100.00;101773.84;6225825;28;20493;-75
2021/12/12 06:55:36;;;;;;;2.28;1.73;;;;;;;2.98;100.00;101766.03;6225729;28;20056;-76
2021/12/12 06:58:38;;;;;;;2.13;1.63;;;;;;;2.96;100.00;101758.25;6226017;28;20524;-75
2021/12/12 07:01:41;;;;;;;2.25;1.48;;;;;;;2.92;100.00;101755.69;6225376;28;20054;-76
2021/12/12 07:04:44;;;;;;;2.42;1.52;;;;;;;2.94;100.00;101757.41;6225594;28;20046;-75
2021/12/12 07:07:46;;;;;;;2.72;1.50;;;;;;;2.88;100.00;101756.56;6225561;28;20050;-75
2021/12/12 07:10:49;;;;;;;4.15;2.53;;;;;;;2.87;100.00;101754.88;6225175;28;20061;-75
2021/12/12 07:13:51;;;;;;;4.57;2.05;;;;;;;2.88;100.00;101749.66;6225451;28;20060;-75
2021/12/12 07:16:55;;;;;;;2.50;2.20;;;;;;;2.88;100.00;101748.78;6225299;28;20053;-76
2021/12/12 07:19:57;;;;;;;4.05;1.42;;;;;;;2.88;100.00;101752.25;6209788;28;20053;-76
2021/12/12 07:22:59;;;;;;;7.35;1.75;;;;;;;2.87;100.00;101747.94;6200666;28;20494;-76
2021/12/12 07:26:01;;;;;;;3.47;1.67;;;;;;;2.95;100.00;101738.38;6218688;28;20073;-76
2021/12/12 07:29:04;;;;;;;3.17;1.58;;;;;;;2.88;100.00;101741.88;6224376;28;20053;-75
2021/12/12 07:32:09;;;;;;;6.63;1.73;;;;;;;2.90;100.00;101741.84;6213619;28;20050;-75
2021/12/12 07:35:14;;;;;;;4.25;1.88;;;;;;;2.91;100.00;101736.66;6215118;28;20516;-76
2021/12/12 07:38:16;;;;;;;4.90;2.25;;;;;;;2.90;100.00;101749.63;6203796;28;20425;-76
2021/12/12 07:41:22;;;;;;;7.25;1.40;;;;;;;2.92;100.00;101746.16;6209693;28;20049;-76
2021/12/12 07:44:28;;;;;;;2.75;1.50;;;;;;;2.94;100.00;101741.81;6216123;28;20524;-76
2021/12/12 07:47:31;;;;;;;3.08;1.92;;;;;;;2.93;100.00;101747.03;6224951;28;20505;-76
2021/12/12 07:50:33;;;;;;;3.70;1.58;;;;;;;3.04;100.00;101734.81;6222891;28;20417;-76
2021/12/12 07:53:34;;;;;;;2.42;1.70;;;;;;;3.02;100.00;101745.22;6224608;28;20049;-75
2021/12/12 07:56:39;;;;;;;4.80;1.77;;;;;;;3.00;100.00;101740.94;6224449;28;20056;-77
2021/12/12 07:59:42;;;;;;;3.08;1.60;;;;;;;3.02;100.00;101745.22;6224734;28;20046;-76
2021/12/12 08:02:47;;;;;;;3.88;1.98;;;;;;;3.00;100.00;101739.19;6224194;28;20072;-76
2021/12/12 08:05:48;;;;;;;2.72;1.00;;;;;;;2.98;100.00;101733.13;6215733;28;20564;-76
2021/12/12 08:08:51;;;;;;;2.97;1.73;;;;;;;2.98;100.00;101732.28;6224233;28;20054;-76
2021/12/12 08:11:53;;;;;;;5.88;1.30;;;;;;;3.03;100.00;101725.31;6223893;28;20486;-76
2021/12/12 08:14:55;;;;;;;1.35;1.20;;;;;;;3.12;100.00;101717.47;6224113;28;20508;-76
2021/12/12 08:18:00;;;;;;;4.90;2.45;;;;;;;3.14;100.00;101722.69;6222608;28;20046;-76
2021/12/12 08:21:03;;;;;;;2.72;1.52;;;;;;;3.11;100.00;101735.66;6199192;28;20053;-76
2021/12/12 08:24:07;;;;;;;2.85;1.35;;;;;;;3.10;100.00;101727.03;6199655;28;20512;-76
2021/12/12 08:27:10;;;;;;;2.25;1.35;;;;;;;3.16;100.00;101731.31;6199302;28;20417;-76
2021/12/12 08:30:15;;;;;;;2.25;1.10;;;;;;;3.16;100.00;101750.34;6209473;28;20046;-76
2021/12/12 08:33:18;;;;;;;1.77;1.30;;;;;;;3.25;100.00;101742.47;6215183;28;20046;-77
2021/12/12 08:36:20;;;;;;;1.35;0.85;;;;;;;3.27;100.00;101745.06;6215710;28;20518;-77
2021/12/12 08:39:23;;;;;;;4.20;1.60;;;;;;;3.27;100.00;101740.75;6200156;28;20050;-76
2021/12/12 08:42:27;;;;;;;2.90;1.10;;;;;;;3.24;100.00;101745.09;6198995;28;20069;-77
2021/12/12 08:45:31;;;;;;;4.93;1.10;;;;;;;3.25;100.00;101755.47;6199066;28;20047;-76
2021/12/12 08:48:37;;;;;;;2.25;1.15;;;;;;;3.31;100.00;101758.00;6209471;28;20054;-77
2021/12/12 08:51:45;;;;;;;1.80;1.30;;;;;;;3.35;100.00;101758.00;6216601;28;20069;-77
2021/12/12 08:54:49;;;;;;;2.15;1.10;;;;;;;3.35;100.00;101763.19;6203296;28;20053;-76
2021/12/12 08:58:03;;;;;;;4.00;1.90;;;;;;;3.35;100.00;101755.41;6206005;28;20137;-74
2021/12/12 09:01:06;;;;;;;5.70;1.77;;;;;;;3.36;100.00;101757.13;6207632;28;20081;-75
2021/12/12 09:04:11;;;;;;;2.53;1.85;;;;;;;3.40;100.00;101756.22;6216734;28;20073;-75
2021/12/12 09:07:17;;;;;;;3.72;1.42;;;;;;;3.41;100.00;101751.03;6208025;28;20505;-74
2021/12/12 09:10:22;;;;;;;5.85;1.42;;;;;;;3.36;100.00;101744.13;6218554;28;20216;-73
2021/12/12 09:13:27;;;;;;;7.18;1.67;;;;;;;3.34;100.00;101744.16;6209560;28;20057;-74
2021/12/12 09:16:35;;;;;;;1.85;0.82;;;;;;;3.35;100.00;101734.63;6211547;28;20452;-74
2021/12/12 09:19:43;;;;;;;1.98;1.10;;;;;;;3.35;100.00;101745.88;6214573;28;20042;-74
2021/12/12 09:22:55;;;;;;;1.60;0.95;;;;;;;3.38;100.00;101748.47;6214060;28;20045;-74
2021/12/12 09:26:00;;;;;;;5.25;1.83;;;;;;;3.43;100.00;101748.41;6220390;28;20045;-74
2021/12/12 09:29:10;;;;;;;5.15;2.00;;;;;;;3.41;100.00;101738.06;6220631;28;20053;-75
2021/12/12 09:32:15;;;;;;;1.67;1.27;;;;;;;3.46;100.00;101725.88;6200311;28;20674;-74
2021/12/12 09:35:22;;;;;;;1.42;1.15;;;;;;;3.48;100.00;101731.91;6212986;28;20497;-75
2021/12/12 09:38:30;;;;;;;2.40;1.73;;;;;;;3.49;100.00;101728.44;6221154;28;20410;-75
2021/12/12 09:41:57;;;;;;;6.03;1.20;;;;;;;3.52;100.00;101731.03;6221218;28;20133;-75
2021/12/12 09:45:13;;;;;;;2.30;1.40;;;;;;;3.58;100.00;101726.63;6218832;28;20418;-75
2021/12/12 09:52:36;;;;;;;1.33;0.98;;;;;;;3.61;100.00;101721.44;6198579;28;20501;-75
2021/12/12 09:55:48;;;;;;;3.13;1.20;;;;;;;3.60;100.00;101717.09;6222190;28;20417;-75
2021/12/12 09:58:56;;;;;;;2.85;1.15;;;;;;;3.60;100.00;101728.38;6221967;28;20058;-75
2021/12/12 10:02:06;;;;;;;3.85;1.45;;;;;;;3.65;100.00;101723.13;6221322;28;20061;-75
2021/12/12 10:05:27;;;;;;;2.63;1.52;;;;;;;3.71;100.00;101725.66;6221701;28;20046;-75
2021/12/12 10:08:42;;;;;;;2.13;1.38;;;;;;;3.70;100.00;101719.59;6224576;28;20052;-75
2021/12/12 10:11:49;;;;;;;2.38;1.35;;;;;;;3.72;100.00;101725.63;6224257;28;20413;-75
2021/12/12 10:14:54;;;;;;;2.78;1.73;;;;;;;3.78;100.00;101711.75;6222539;28;20045;-74
2021/12/12 10:18:00;;;;;;;2.22;1.42;;;;;;;3.81;100.00;101712.56;6213032;28;20065;-76
2021/12/12 10:21:06;;;;;;;5.10;1.25;;;;;;;3.86;100.00;101715.13;6213644;28;20417;-75
2021/12/12 10:24:27;;;;;;;2.50;1.33;;;;;;;3.88;100.00;101712.50;6220559;28;20146;-76
2021/12/12 10:27:34;;;;;;;1.63;1.25;;;;;;;3.89;100.00;101711.63;6221689;28;20417;-76
2021/12/12 10:30:43;;;;;;;2.50;1.23;;;;;;;3.91;100.00;101723.75;6221469;28;20050;-76
2021/12/12 10:33:49;;;;;;;4.97;1.57;;;;;;;3.93;100.00;101718.50;6220332;28;20050;-76
2021/12/12 10:36:59;;;;;;;2.92;1.77;;;;;;;3.96;100.00;101721.09;6217002;28;20052;-75
2021/12/12 10:40:07;;;;;;;2.08;0.90;;;;;;;4.02;100.00;101708.88;6226123;28;20065;-75
2021/12/12 10:43:13;;;;;;;1.63;1.13;;;;;;;4.06;100.00;101714.91;6222151;28;20046;-76
2021/12/12 10:46:21;;;;;;;2.05;1.17;;;;;;;4.11;100.00;101714.84;6218902;28;20132;-76
2021/12/12 10:49:29;;;;;;;2.17;1.00;;;;;;;4.14;100.00;101722.63;6219341;28;20053;-76
2021/12/12 10:52:37;;;;;;;2.38;1.30;;;;;;;4.14;100.00;101715.69;6221959;28;20054;-75
2021/12/12 10:55:47;;;;;;;1.58;1.17;;;;;;;4.25;100.00;101707.75;6223624;28;20077;-76
2021/12/12 10:58:50;;;;;;;1.55;0.82;;;;;;;4.23;100.00;101714.72;6217587;28;20049;-76
2021/12/12 11:01:57;;;;;;;1.77;0.82;;;;;;;4.31;100.00;101713.75;6222726;28;20038;-75
2021/12/12 11:05:05;;;;;;;1.02;0.90;;;;;;;4.35;100.00;101713.72;6211157;28;20522;-76
2021/12/12 11:08:11;;;;;;;1.23;0.90;;;;;;;4.28;100.00;101719.00;6200623;28;20065;-75
2021/12/12 11:11:18;;;;;;;2.30;1.10;;;;;;;4.31;100.00;101723.28;6206952;28;20135;-75
2021/12/12 11:14:23;;;;;;;1.80;0.93;;;;;;;4.30;100.00;101725.03;6224569;28;20054;-76
2021/12/12 11:17:30;;;;;;;1.70;0.90;;;;;;;4.31;100.00;101726.78;6212114;28;20042;-76
2021/12/12 11:20:35;;;;;;;2.42;1.10;;;;;;;4.37;100.00;101730.19;6224110;28;20108;-77
2021/12/12 11:23:43;;;;;;;1.67;1.05;;;;;;;4.39;100.00;101718.00;6225433;28;20049;-77
2021/12/12 11:26:53;;;;;;;1.27;0.77;;;;;;;4.39;100.00;101713.66;6222557;28;20042;-79
2021/12/12 11:30:01;;;;;;;3.53;0.88;;;;;;;4.40;100.00;101714.50;6215065;28;20410;-77
2021/12/12 11:33:06;;;;;;;2.17;0.98;;;;;;;4.41;100.00;101713.66;6213274;28;20150;-76
2021/12/12 11:36:12;;;;;;;1.10;0.80;;;;;;;4.42;100.00;101711.03;6225844;28;20394;-76
2021/12/12 11:39:21;;;;;;;1.17;1.08;;;;;;;4.45;100.00;101705.78;6229091;28;20046;-78
2021/12/12 11:42:27;;;;;;;1.35;1.08;;;;;;;4.49;100.00;101707.44;6227295;28;20046;-78
2021/12/12 11:45:38;;;;;;;1.38;1.20;;;;;;;4.47;100.00;101704.00;6221288;28;20041;-76
2021/12/12 11:48:50;;;;;;;1.40;1.20;;;;;;;4.51;100.00;101710.03;6217397;28;20054;-76
2021/12/12 11:51:56;;;;;;;0.65;0.60;;;;;;;4.49;100.00;101717.84;6223924;28;20056;-76
2021/12/12 11:55:01;;;;;;;3.40;1.75;;;;;;;4.49;100.00;101712.66;6224674;28;20046;-76
2021/12/12 11:58:15;;;;;;;5.60;1.60;;;;;;;4.53;100.00;101703.94;6224641;28;20050;-76
2021/12/12 12:01:24;;;;;;;1.73;0.90;;;;;;;4.56;100.00;101701.28;6224843;28;20049;-76
2021/12/12 12:04:42;;;;;;;1.77;0.98;;;;;;;4.57;100.00;101707.34;6224611;28;20061;-76
2021/12/12 12:07:56;;;;;;;2.05;1.38;;;;;;;4.56;100.00;101706.50;6223299;28;20050;-77
2021/12/12 12:11:12;;;;;;;3.47;1.42;;;;;;;4.60;100.00;101702.13;6220855;28;20136;-76
2021/12/12 12:14:27;;;;;;;1.85;1.27;;;;;;;4.62;100.00;101702.09;6215634;28;20132;-76
2021/12/12 12:17:32;;;;;;;1.88;1.52;;;;;;;4.66;100.00;101708.97;6220977;28;20047;-76
2021/12/12 12:20:43;;;;;;;1.92;1.17;;;;;;;4.62;100.00;101715.09;6223629;28;20050;-76
2021/12/12 12:24:11;;;;;;;1.85;1.55;;;;;;;4.62;100.00;101708.16;6223887;28;20053;-76
2021/12/12 12:27:16;;;;;;;1.38;1.27;;;;;;;4.67;100.00;101716.75;6223746;28;20046;-76
2021/12/12 12:30:51;;;;;;;2.13;1.63;;;;;;;4.71;100.00;101725.41;6223641;28;20054;-78
2021/12/12 12:34:22;;;;;;;3.72;1.95;;;;;;;4.71;100.00;101723.66;6220951;28;20053;-76
2021/12/12 12:38:09;;;;;;;4.07;2.17;;;;;;;4.75;100.00;101703.66;6214950;28;20128;-76
2021/12/12 12:42:10;;;;;;;3.22;1.52;;;;;;;4.76;100.00;101705.34;6213315;28;20065;-76
2021/12/12 12:46:13;;;;;;;3.63;2.03;;;;;;;4.81;100.00;101712.25;6213715;28;20042;-77
2021/12/12 12:49:52;;;;;;;2.42;1.45;;;;;;;4.82;100.00;101710.50;6218152;28;20062;-76
2021/12/12 12:53:09;;;;;;;2.22;1.58;;;;;;;4.83;100.00;101702.66;6199039;28;20054;-76
2021/12/12 12:56:45;;;;;;;2.78;1.70;;;;;;;4.82;100.00;101711.38;6215120;28;20406;-76
2021/12/12 12:59:57;;;;;;;2.25;1.83;;;;;;;4.84;100.00;101706.13;6211921;28;20057;-76
2021/12/12 13:03:29;;;;;;;2.67;1.70;;;;;;;4.88;100.00;101705.19;6223181;28;20053;-76
2021/12/12 13:07:08;;;;;;;2.90;1.90;;;;;;;4.88;100.00;101697.38;6222666;28;20413;-76
2021/12/12 13:10:14;;;;;;;6.80;2.38;;;;;;;4.93;100.00;101707.72;6222644;28;20138;-76
2021/12/12 13:13:22;;;;;;;4.47;2.47;;;;;;;4.94;100.00;101705.09;6222679;28;20050;-76
2021/12/12 13:16:33;;;;;;;3.15;1.40;;;;;;;5.00;100.00;101707.63;6222862;28;20135;-76
2021/12/12 13:19:43;;;;;;;3.15;1.98;;;;;;;4.98;100.00;101705.91;6212897;28;20061;-76
2021/12/12 13:22:52;;;;;;;4.43;1.90;;;;;;;5.01;100.00;101711.94;6221892;28;20050;-76
2021/12/12 13:25:57;;;;;;;3.45;2.08;;;;;;;5.01;100.00;101709.34;6221214;28;20045;-76
2021/12/12 13:29:14;;;;;;;3.80;2.03;;;;;;;5.04;100.00;101708.41;6222335;28;20046;-76
2021/12/12 13:32:26;;;;;;;3.45;2.00;;;;;;;5.05;100.00;101716.22;6221835;28;20062;-77
2021/12/12 13:35:33;;;;;;;4.70;2.42;;;;;;;5.09;100.00;101722.25;6209281;28;20129;-76
2021/12/12 13:38:49;;;;;;;4.80;2.45;;;;;;;5.09;100.00;101717.91;6222795;28;20049;-77
2021/12/12 13:42:06;;;;;;;3.90;2.22;;;;;;;5.11;100.00;101722.22;6213403;28;20050;-77
2021/12/12 13:45:23;;;;;;;4.47;2.53;;;;;;;5.14;100.00;101719.59;6221594;28;20080;-76
2021/12/12 13:48:36;;;;;;;3.90;1.92;;;;;;;5.16;100.00;101729.09;6213233;28;20053;-76
2021/12/12 13:51:45;;;;;;;4.05;2.95;;;;;;;5.15;100.00;101731.72;6210540;28;20421;-77
2021/12/12 13:54:56;;;;;;;3.72;2.70;;;;;;;5.19;100.00;101734.25;6210876;28;20053;-76
2021/12/12 13:58:09;;;;;;;2.05;1.80;;;;;;;5.19;100.00;101738.63;6209793;28;20511;-76
2021/12/12 14:01:16;;;;;;;3.40;2.55;;;;;;;5.22;100.00;101734.22;6216610;28;20464;-77
2021/12/12 14:04:26;;;;;;;3.92;1.85;;;;;;;5.21;100.00;101735.09;6198036;28;20046;-76
2021/12/12 14:07:31;;;;;;;4.72;2.10;;;;;;;5.24;100.00;101735.06;6218176;28;20456;-76
2021/12/12 14:10:37;;;;;;;4.32;2.92;;;;;;;5.26;100.00;101748.91;6221231;28;20513;-77
2021/12/12 14:13:42;;;;;;;4.07;2.47;;;;;;;5.24;100.00;101744.63;6220964;28;20050;-76
2021/12/12 14:16:46;;;;;;;3.65;2.30;;;;;;;5.28;100.00;101751.50;6198037;28;20057;-76
2021/12/12 14:19:52;;;;;;;5.03;2.80;;;;;;;5.32;100.00;101755.78;6196997;28;20050;-76
2021/12/12 14:22:57;;;;;;;4.10;2.53;;;;;;;5.34;100.00;101751.41;6198380;28;20061;-76
2021/12/12 14:26:06;;;;;;;4.95;2.58;;;;;;;5.34;100.00;101756.63;6197317;28;20043;-76
2021/12/12 14:29:15;;;;;;;4.32;2.75;;;;;;;5.36;100.00;101757.47;6197770;28;20490;-76
2021/12/12 14:32:21;;;;;;;2.95;2.20;;;;;;;5.35;100.00;101760.94;6209097;28;20116;-77
2021/12/12 14:35:30;;;;;;;3.40;1.88;;;;;;;5.38;100.00;101757.44;6218149;28;20046;-77
2021/12/12 14:38:32;;;;;;;4.70;2.65;;;;;;;5.39;100.00;101767.81;6213912;28;20049;-77
2021/12/12 14:41:39;;;;;;;3.33;1.95;;;;;;;5.42;100.00;101766.94;6210481;28;20137;-76
2021/12/12 14:44:43;;;;;;;4.82;2.80;;;;;;;5.44;100.00;101767.75;6213004;28;21367;-78